Harbor Princess — WCX8036 — position and weather

sailwx.info

Track history (hours):
 
Tides and Currents Weather Stations Pressure Air Temp Water Temp Dewpoint Dewpoint Depression Visibility Wind Speed Wind Dir Waves Ship Positions

Harbor Princess

Owner: Golden Gate Scenic Steamship Corp, SAN FRANCISCO, CA. More information available from US FCC via Universal Licensing System and Coast Guard Vessel Documentation Center.

Last reported at 2018-Jul-18 03:02 UTC. Time now 2018-Jul-19 15:12 UTC.
Position N 37°49' W 122°25'.

Length 25 m; draft 2.8 m.

Type: Passenger vessel. MMSI: 366975750.

Date/timePositionNaut miles runAvg speedWind from/ knotsBaromVisibWave heightAir tempDewpointWater temp
2018-Jul-18 03:02N 37°49' W 122°25'0 0.0
2018-Jul-18 03:00N 37°49' W 122°25'0 0.0
2018-Jul-18 02:31N 37°49' W 122°25'1 1.9
2018-Jul-18 02:01N 37°49' W 122°24'1 2.4
2018-Jul-18 01:30N 37°50' W 122°25'2 3.8
2018-Jul-18 01:01N 37°49' W 122°27'2 3.8
2018-Jul-18 00:30N 37°49' W 122°25'1 1.6
2018-Jul-18 00:00N 37°49' W 122°25'2 3.7
2018-Jul-17 23:31N 37°49' W 122°27'2 3.6
2018-Jul-17 23:01N 37°49' W 122°25'2 4.7
2018-Jul-17 22:30N 37°49' W 122°28'2 4.7
2018-Jul-17 22:00N 37°49' W 122°25'1 1.2
2018-Jul-17 21:30N 37°49' W 122°24'2 4.9
2018-Jul-17 21:00N 37°49' W 122°27'2 3.9
2018-Jul-17 20:30N 37°49' W 122°25'0 0.4
2018-Jul-17 20:00N 37°49' W 122°25'1 1.9
2018-Jul-17 19:30N 37°49' W 122°25'2 3.3
2018-Jul-17 19:01N 37°49' W 122°27'2 3.2
2018-Jul-17 18:30N 37°49' W 122°25'  
2018-Jul-14 02:34N 37°49' W 122°25'0 0.1
2018-Jul-14 02:30N 37°49' W 122°25'1 1.6
2018-Jul-14 02:00N 37°49' W 122°25'2 3.3
2018-Jul-14 01:30N 37°49' W 122°27'2 3.4
2018-Jul-14 01:00N 37°49' W 122°25'2 4.4
2018-Jul-14 00:30N 37°49' W 122°27'2 4.3
2018-Jul-14 00:00N 37°49' W 122°25'1 1.9
2018-Jul-13 23:30N 37°50' W 122°25'2 3.3
2018-Jul-13 23:00N 37°49' W 122°27'2 3.5
2018-Jul-13 22:30N 37°49' W 122°25'3 5.6
2018-Jul-13 22:00N 37°49' W 122°28'3 5.7
2018-Jul-13 21:30N 37°49' W 122°25'0 0.5
2018-Jul-13 21:00N 37°49' W 122°25'0 0.1
2018-Jul-13 20:30N 37°49' W 122°25'0 0.0
2018-Jul-12 02:40N 37°49' W 122°25'0 0.0
2018-Jul-12 02:30N 37°49' W 122°25'1 2.1
2018-Jul-12 02:00N 37°48' W 122°24'1 2.7
2018-Jul-12 01:30N 37°50' W 122°25'2 3.8
2018-Jul-12 01:00N 37°49' W 122°27'2 3.7
2018-Jul-12 00:30N 37°49' W 122°25'1 1.9
2018-Jul-12 00:00N 37°50' W 122°25'2 3.4
2018-Jul-11 23:30N 37°49' W 122°27'2 3.4
2018-Jul-11 23:00N 37°49' W 122°25'2 4.6
2018-Jul-11 22:30N 37°49' W 122°28'2 4.6
2018-Jul-11 22:00N 37°49' W 122°25'1 1.7
2018-Jul-11 21:30N 37°49' W 122°25'2 4.3
2018-Jul-11 21:00N 37°49' W 122°27'2 4.0
2018-Jul-11 20:30N 37°49' W 122°25'0 0.0
2018-Jul-11 20:00N 37°49' W 122°25'1 1.9
2018-Jul-11 19:30N 37°49' W 122°25'2 3.2
2018-Jul-11 19:00N 37°49' W 122°27'2 3.4
2018-Jul-11 18:30N 37°49' W 122°25'0 0.0
2018-Jul-10 20:17N 37°49' W 122°25'0 0.9
2018-Jul-10 20:00N 37°49' W 122°25'2 3.2
2018-Jul-10 19:30N 37°50' W 122°26'1 2.5
2018-Jul-10 19:00N 37°49' W 122°25'0 0.6
2018-Jul-10 18:30N 37°49' W 122°25'  
Track history (hours):
 
Tides and Currents Weather Stations Pressure Air Temp Water Temp Dewpoint Dewpoint Depression Visibility Wind Speed Wind Dir Waves Ship Positions

Harbor Princess

Owner: Golden Gate Scenic Steamship Corp, SAN FRANCISCO, CA. More information available from US FCC via Universal Licensing System and Coast Guard Vessel Documentation Center.

Last reported at 2018-Jul-18 03:02 UTC. Time now 2018-Jul-19 15:12 UTC.
Position N 37°49' W 122°25'.

Length 25 m; draft 2.8 m.

Type: Passenger vessel. MMSI: 366975750.

Date/timePositionNaut miles runAvg speedWind from/ knotsBaromVisibWave heightAir tempDewpointWater temp
2018-Jul-18 03:02N 37°49' W 122°25'0 0.0
2018-Jul-18 03:00N 37°49' W 122°25'0 0.0
2018-Jul-18 02:31N 37°49' W 122°25'1 1.9
2018-Jul-18 02:01N 37°49' W 122°24'1 2.4
2018-Jul-18 01:30N 37°50' W 122°25'2 3.8
2018-Jul-18 01:01N 37°49' W 122°27'2 3.8
2018-Jul-18 00:30N 37°49' W 122°25'1 1.6
2018-Jul-18 00:00N 37°49' W 122°25'2 3.7
2018-Jul-17 23:31N 37°49' W 122°27'2 3.6
2018-Jul-17 23:01N 37°49' W 122°25'2 4.7
2018-Jul-17 22:30N 37°49' W 122°28'2 4.7
2018-Jul-17 22:00N 37°49' W 122°25'1 1.2
2018-Jul-17 21:30N 37°49' W 122°24'2 4.9
2018-Jul-17 21:00N 37°49' W 122°27'2 3.9
2018-Jul-17 20:30N 37°49' W 122°25'0 0.4
2018-Jul-17 20:00N 37°49' W 122°25'1 1.9
2018-Jul-17 19:30N 37°49' W 122°25'2 3.3
2018-Jul-17 19:01N 37°49' W 122°27'2 3.2
2018-Jul-17 18:30N 37°49' W 122°25'  
2018-Jul-14 02:34N 37°49' W 122°25'0 0.1
2018-Jul-14 02:30N 37°49' W 122°25'1 1.6
2018-Jul-14 02:00N 37°49' W 122°25'2 3.3
2018-Jul-14 01:30N 37°49' W 122°27'2 3.4
2018-Jul-14 01:00N 37°49' W 122°25'2 4.4
2018-Jul-14 00:30N 37°49' W 122°27'2 4.3
2018-Jul-14 00:00N 37°49' W 122°25'1 1.9
2018-Jul-13 23:30N 37°50' W 122°25'2 3.3
2018-Jul-13 23:00N 37°49' W 122°27'2 3.5
2018-Jul-13 22:30N 37°49' W 122°25'3 5.6
2018-Jul-13 22:00N 37°49' W 122°28'3 5.7
2018-Jul-13 21:30N 37°49' W 122°25'0 0.5
2018-Jul-13 21:00N 37°49' W 122°25'0 0.1
2018-Jul-13 20:30N 37°49' W 122°25'0 0.0
2018-Jul-12 02:40N 37°49' W 122°25'0 0.0
2018-Jul-12 02:30N 37°49' W 122°25'1 2.1
2018-Jul-12 02:00N 37°48' W 122°24'1 2.7
2018-Jul-12 01:30N 37°50' W 122°25'2 3.8
2018-Jul-12 01:00N 37°49' W 122°27'2 3.7
2018-Jul-12 00:30N 37°49' W 122°25'1 1.9
2018-Jul-12 00:00N 37°50' W 122°25'2 3.4
2018-Jul-11 23:30N 37°49' W 122°27'2 3.4
2018-Jul-11 23:00N 37°49' W 122°25'2 4.6
2018-Jul-11 22:30N 37°49' W 122°28'2 4.6
2018-Jul-11 22:00N 37°49' W 122°25'1 1.7
2018-Jul-11 21:30N 37°49' W 122°25'2 4.3
2018-Jul-11 21:00N 37°49' W 122°27'2 4.0
2018-Jul-11 20:30N 37°49' W 122°25'0 0.0
2018-Jul-11 20:00N 37°49' W 122°25'1 1.9
2018-Jul-11 19:30N 37°49' W 122°25'2 3.2
2018-Jul-11 19:00N 37°49' W 122°27'2 3.4
2018-Jul-11 18:30N 37°49' W 122°25'0 0.0
2018-Jul-10 20:17N 37°49' W 122°25'0 0.9
2018-Jul-10 20:00N 37°49' W 122°25'2 3.2
2018-Jul-10 19:30N 37°50' W 122°26'1 2.5
2018-Jul-10 19:00N 37°49' W 122°25'0 0.6
2018-Jul-10 18:30N 37°49' W 122°25'  

Dump ship's entire track history